Time;durP1;ratioP1;P1;durP2;ratioP2;P2;SDS_P1;SDS_P2;PMS_P1;PMS_P2;Temp;Humidity;BMP_temperature;BMP_pressure;BME280_temperature;BME280_humidity;BME280_pressure;Samples;Min_cycle;Max_cycle;Signal;HPM_P1;HPM_P2
2023/09/09 00:00:54;;;;;;;;;;;;;;;;;;5075695;28;19923;-57
2023/09/09 00:03:19;;;;;;;;;;;;;;;;;;5080521;28;19958;-56
2023/09/09 00:05:45;;;;;;;;;;;;;;;;;;5072736;28;19920;-54
2023/09/09 00:08:10;;;;;;;;;;;;;;;;;;5081996;28;19913;-53
2023/09/09 00:10:36;;;;;;;;;;;;;;;;;;5077158;28;19934;-52
2023/09/09 00:13:01;;;;;;;;;;;;;;;;;;5076629;28;19917;-52
2023/09/09 00:15:26;;;;;;;;;;;;;;;;;;5076919;28;19920;-54
2023/09/09 00:17:51;;;;;;;;;;;;;;;;;;5081250;28;19921;-55
2023/09/09 00:20:17;;;;;;;;;;;;;;;;;;5077141;28;19944;-53
2023/09/09 00:22:42;;;;;;;;;;;;;;;;;;5081324;28;19913;-54
2023/09/09 00:25:08;;;;;;;;;;;;;;;;;;5076807;28;19913;-52
2023/09/09 00:27:33;;;;;;;;;;;;;;;;;;5079153;28;19912;-54
2023/09/09 00:29:59;;;;;;;;;;;;;;;;;;5077127;28;19921;-55
2023/09/09 00:32:24;;;;;;;;;;;;;;;;;;5077365;28;19916;-53
2023/09/09 00:34:49;;;;;;;;;;;;;;;;;;5077295;28;19912;-53
2023/09/09 00:37:15;;;;;;;;;;;;;;;;;;5087290;28;19913;-53
2023/09/09 00:39:40;;;;;;;;;;;;;;;;;;5078815;28;19924;-56
2023/09/09 00:42:06;;;;;;;;;;;;;;;;;;5077033;28;19912;-55
2023/09/09 00:44:31;;;;;;;;;;;;;;;;;;5059040;28;19917;-55
2023/09/09 00:46:57;;;;;;;;;;;;;;;;;;5083272;28;19916;-56
2023/09/09 00:49:23;;;;;;;;;;;;;;;;;;5079320;28;19917;-53
2023/09/09 00:51:48;;;;;;;;;;;;;;;;;;5092431;28;19920;-52
2023/09/09 00:54:13;;;;;;;;;;;;;;;;;;5092659;28;19924;-55
2023/09/09 00:56:39;;;;;;;;;;;;;;;;;;5080070;28;19944;-54
2023/09/09 00:59:04;;;;;;;;;;;;;;;;;;5079365;28;19913;-55
2023/09/09 01:01:32;;;;;;;;;;;;;;;;;;5075573;28;19979;-53
2023/09/09 01:03:57;;;;;;;;;;;;;;;;;;5075373;28;19984;-54
2023/09/09 01:06:22;;;;;;;;;;;;;;;;;;5091679;28;19928;-55
2023/09/09 01:08:48;;;;;;;;;;;;;;;;;;5058214;28;19924;-53
2023/09/09 01:11:13;;;;;;;;;;;;;;;;;;5058687;28;19980;-53
2023/09/09 01:13:39;;;;;;;;;;;;;;;;;;5093653;28;19912;-51
2023/09/09 01:16:04;;;;;;;;;;;;;;;;;;5076544;28;19917;-52
2023/09/09 01:18:33;;;;;;;;;;;;;;;;;;5088769;28;20099;-55
2023/09/09 01:20:58;;;;;;;;;;;;;;;;;;5075206;28;19923;-55
2023/09/09 01:23:24;;;;;;;;;;;;;;;;;;5056405;28;19912;-51
2023/09/09 01:25:50;;;;;;;;;;;;;;;;;;5076198;28;19924;-57
2023/09/09 01:28:19;;;;;;;;;;;;;;;;;;5085681;28;19936;-56
2023/09/09 01:30:44;;;;;;;;;;;;;;;;;;5058985;28;19913;-55
2023/09/09 01:33:09;;;;;;;;;;;;;;;;;;5084937;28;19955;-54
2023/09/09 01:35:35;;;;;;;;;;;;;;;;;;5076399;28;19939;-52
2023/09/09 01:38:00;;;;;;;;;;;;;;;;;;5098120;28;19924;-55
2023/09/09 01:40:26;;;;;;;;;;;;;;;;;;5079643;28;19988;-56
2023/09/09 01:42:51;;;;;;;;;;;;;;;;;;5060885;28;19920;-56
2023/09/09 01:45:17;;;;;;;;;;;;;;;;;;5091904;28;19913;-55
2023/09/09 01:47:43;;;;;;;;;;;;;;;;;;5062305;28;19912;-56
2023/09/09 01:50:09;;;;;;;;;;;;;;;;;;5076340;28;19928;-56
2023/09/09 01:52:34;;;;;;;;;;;;;;;;;;5078169;28;19913;-55
2023/09/09 01:55:00;;;;;;;;;;;;;;;;;;5076184;28;19932;-52
2023/09/09 01:57:26;;;;;;;;;;;;;;;;;;5075911;28;19935;-54
2023/09/09 01:59:52;;;;;;;;;;;;;;;;;;5092047;28;19959;-54
2023/09/09 02:02:17;;;;;;;;;;;;;;;;;;5091786;28;19913;-53
2023/09/09 02:04:43;;;;;;;;;;;;;;;;;;5058446;28;19924;-54
2023/09/09 02:07:09;;;;;;;;;;;;;;;;;;5077738;28;19940;-52
2023/09/09 02:09:35;;;;;;;;;;;;;;;;;;5084360;28;19925;-55
2023/09/09 02:12:03;;;;;;;;;;;;;;;;;;5067511;28;20057;-55
2023/09/09 02:14:28;;;;;;;;;;;;;;;;;;5091411;28;19913;-52
2023/09/09 02:16:54;;;;;;;;;;;;;;;;;;5064055;28;19939;-54
2023/09/09 02:19:20;;;;;;;;;;;;;;;;;;5096112;28;19932;-56
2023/09/09 02:21:45;;;;;;;;;;;;;;;;;;5094515;28;19923;-55
2023/09/09 02:24:11;;;;;;;;;;;;;;;;;;5095385;28;19916;-53
2023/09/09 02:26:36;;;;;;;;;;;;;;;;;;5095507;28;19912;-53
2023/09/09 02:29:02;;;;;;;;;;;;;;;;;;5098058;28;19920;-56
2023/09/09 02:31:28;;;;;;;;;;;;;;;;;;5094010;28;19912;-55
2023/09/09 02:33:54;;;;;;;;;;;;;;;;;;5098075;28;20403;-54
2023/09/09 02:36:19;;;;;;;;;;;;;;;;;;5093993;28;19912;-57
2023/09/09 02:38:45;;;;;;;;;;;;;;;;;;5093885;28;19957;-54
2023/09/09 02:41:10;;;;;;;;;;;;;;;;;;5094667;28;20000;-55
2023/09/09 02:43:36;;;;;;;;;;;;;;;;;;5095174;28;19920;-53
2023/09/09 02:46:02;;;;;;;;;;;;;;;;;;5094099;28;19979;-52
2023/09/09 02:48:28;;;;;;;;;;;;;;;;;;5102148;28;19945;-52
2023/09/09 02:50:53;;;;;;;;;;;;;;;;;;5097878;28;19912;-55
2023/09/09 02:53:18;;;;;;;;;;;;;;;;;;5094244;28;19923;-54
2023/09/09 02:55:44;;;;;;;;;;;;;;;;;;5095165;28;19931;-51
2023/09/09 02:58:12;;;;;;;;;;;;;;;;;;5098880;28;19979;-56
2023/09/09 03:00:38;;;;;;;;;;;;;;;;;;5098883;28;19931;-52
2023/09/09 03:03:05;;;;;;;;;;;;;;;;;;5102187;28;19976;-53
2023/09/09 03:05:31;;;;;;;;;;;;;;;;;;5094157;28;19939;-57
2023/09/09 03:07:56;;;;;;;;;;;;;;;;;;5085825;28;19917;-55
2023/09/09 03:10:22;;;;;;;;;;;;;;;;;;5098610;28;19920;-53
2023/09/09 03:12:48;;;;;;;;;;;;;;;;;;5099048;28;19923;-51
2023/09/09 03:15:14;;;;;;;;;;;;;;;;;;5092963;28;19920;-56
2023/09/09 03:17:39;;;;;;;;;;;;;;;;;;5073909;28;19917;-51
2023/09/09 03:20:05;;;;;;;;;;;;;;;;;;5092498;28;19943;-54
2023/09/09 03:22:30;;;;;;;;;;;;;;;;;;5090553;28;19925;-52
2023/09/09 03:24:56;;;;;;;;;;;;;;;;;;5075386;28;19912;-54
2023/09/09 03:27:21;;;;;;;;;;;;;;;;;;5074848;28;19940;-52
2023/09/09 03:29:47;;;;;;;;;;;;;;;;;;5086532;28;19928;-53
2023/09/09 03:32:12;;;;;;;;;;;;;;;;;;5074810;28;19927;-55
2023/09/09 03:34:38;;;;;;;;;;;;;;;;;;5085810;28;19913;-54
2023/09/09 03:37:04;;;;;;;;;;;;;;;;;;5074885;28;19913;-55
2023/09/09 03:39:30;;;;;;;;;;;;;;;;;;5082841;28;19939;-55
2023/09/09 03:41:55;;;;;;;;;;;;;;;;;;5094166;28;19917;-51
2023/09/09 03:44:21;;;;;;;;;;;;;;;;;;5067455;28;19920;-50
2023/09/09 03:46:46;;;;;;;;;;;;;;;;;;5090777;28;19996;-52
2023/09/09 03:49:12;;;;;;;;;;;;;;;;;;5057034;28;19924;-56
2023/09/09 03:51:37;;;;;;;;;;;;;;;;;;5090634;28;19913;-53
2023/09/09 03:54:03;;;;;;;;;;;;;;;;;;5074549;28;19984;-54
2023/09/09 03:56:28;;;;;;;;;;;;;;;;;;5074650;28;19938;-54
2023/09/09 03:58:54;;;;;;;;;;;;;;;;;;5074476;28;19912;-55
2023/09/09 04:01:19;;;;;;;;;;;;;;;;;;5090688;28;19917;-55
2023/09/09 04:03:45;;;;;;;;;;;;;;;;;;5092550;28;19916;-53
2023/09/09 04:06:16;;;;;;;;;;;;;;;;;;5090270;28;19924;-50
2023/09/09 04:08:42;;;;;;;;;;;;;;;;;;5059611;28;19924;-55
2023/09/09 04:11:08;;;;;;;;;;;;;;;;;;5067501;28;19908;-55
2023/09/09 04:13:37;;;;;;;;;;;;;;;;;;5091786;28;19968;-53
2023/09/09 04:16:03;;;;;;;;;;;;;;;;;;5066691;28;19927;-52
2023/09/09 04:18:28;;;;;;;;;;;;;;;;;;5123000;28;20051;-56
2023/09/09 04:20:53;;;;;;;;;;;;;;;;;;5103917;28;19913;-53
2023/09/09 04:23:19;;;;;;;;;;;;;;;;;;5103124;28;19944;-53
2023/09/09 04:25:44;;;;;;;;;;;;;;;;;;5094564;28;19917;-53
2023/09/09 04:28:11;;;;;;;;;;;;;;;;;;5093439;28;19989;-56
2023/09/09 04:30:38;;;;;;;;;;;;;;;;;;5100713;28;19916;-54
2023/09/09 04:33:04;;;;;;;;;;;;;;;;;;5099914;28;19976;-54
2023/09/09 04:35:29;;;;;;;;;;;;;;;;;;5094484;28;19908;-52
2023/09/09 04:37:55;;;;;;;;;;;;;;;;;;5093322;28;19948;-54
2023/09/09 04:40:20;;;;;;;;;;;;;;;;;;5097993;28;19924;-54
2023/09/09 04:42:46;;;;;;;;;;;;;;;;;;5094208;28;19987;-55
2023/09/09 04:45:11;;;;;;;;;;;;;;;;;;5093449;28;19938;-54
2023/09/09 04:47:37;;;;;;;;;;;;;;;;;;5093625;28;19927;-51
2023/09/09 04:50:03;;;;;;;;;;;;;;;;;;5093780;28;19944;-52
2023/09/09 04:52:28;;;;;;;;;;;;;;;;;;5093228;28;19983;-55
2023/09/09 04:54:53;;;;;;;;;;;;;;;;;;5095351;28;19940;-53
2023/09/09 04:57:19;;;;;;;;;;;;;;;;;;5096867;28;19940;-52
2023/09/09 04:59:44;;;;;;;;;;;;;;;;;;5103865;28;19912;-54
2023/09/09 05:02:10;;;;;;;;;;;;;;;;;;5101857;28;19959;-55
2023/09/09 05:04:36;;;;;;;;;;;;;;;;;;5102954;28;19912;-51
2023/09/09 05:07:01;;;;;;;;;;;;;;;;;;5101315;28;19936;-54
2023/09/09 05:09:27;;;;;;;;;;;;;;;;;;5101083;28;19916;-54
2023/09/09 05:11:52;;;;;;;;;;;;;;;;;;5100417;28;19912;-54
2023/09/09 05:14:17;;;;;;;;;;;;;;;;;;5099103;28;19916;-52
2023/09/09 05:16:42;;;;;;;;;;;;;;;;;;5096920;28;20014;-56
2023/09/09 05:19:08;;;;;;;;;;;;;;;;;;5093088;28;19912;-51
2023/09/09 05:21:33;;;;;;;;;;;;;;;;;;5063396;28;19924;-48
2023/09/09 05:23:59;;;;;;;;;;;;;;;;;;5092899;28;19920;-54
2023/09/09 05:26:24;;;;;;;;;;;;;;;;;;5059119;28;19960;-52
2023/09/09 05:28:50;;;;;;;;;;;;;;;;;;5076812;28;19951;-52
2023/09/09 05:31:16;;;;;;;;;;;;;;;;;;5059457;28;19913;-54
2023/09/09 05:33:42;;;;;;;;;;;;;;;;;;5092877;28;19917;-56
2023/09/09 05:36:07;;;;;;;;;;;;;;;;;;5093708;28;19932;-51
2023/09/09 05:38:32;;;;;;;;;;;;;;;;;;5059554;28;19948;-53
2023/09/09 05:40:57;;;;;;;;;;;;;;;;;;5103567;28;19920;-52
2023/09/09 05:43:23;;;;;;;;;;;;;;;;;;5092455;28;19917;-49
2023/09/09 05:45:48;;;;;;;;;;;;;;;;;;5086479;28;19924;-52
2023/09/09 05:48:14;;;;;;;;;;;;;;;;;;5076626;28;19913;-53
2023/09/09 05:50:40;;;;;;;;;;;;;;;;;;5085453;28;19927;-55
2023/09/09 05:53:05;;;;;;;;;;;;;;;;;;5092754;28;19924;-49
2023/09/09 05:55:31;;;;;;;;;;;;;;;;;;5066971;28;19992;-52
2023/09/09 05:57:56;;;;;;;;;;;;;;;;;;5076807;28;19944;-51
2023/09/09 06:00:22;;;;;;;;;;;;;;;;;;5082188;28;19942;-53
2023/09/09 06:02:47;;;;;;;;;;;;;;;;;;5059168;28;19934;-54
2023/09/09 06:05:14;;;;;;;;;;;;;;;;;;5096362;28;19923;-54
2023/09/09 06:07:39;;;;;;;;;;;;;;;;;;5092439;28;19913;-50
2023/09/09 06:10:04;;;;;;;;;;;;;;;;;;5075594;28;19917;-53
2023/09/09 06:12:30;;;;;;;;;;;;;;;;;;5091861;28;19920;-53
2023/09/09 06:14:55;;;;;;;;;;;;;;;;;;5060734;28;19979;-55
2023/09/09 06:17:21;;;;;;;;;;;;;;;;;;5105908;28;19955;-54
2023/09/09 06:19:46;;;;;;;;;;;;;;;;;;5096069;28;19912;-55
2023/09/09 06:22:12;;;;;;;;;;;;;;;;;;5124515;28;19912;-55
2023/09/09 06:24:38;;;;;;;;;;;;;;;;;;5095132;28;19920;-52
2023/09/09 06:27:03;;;;;;;;;;;;;;;;;;5094974;28;19980;-55
2023/09/09 06:29:29;;;;;;;;;;;;;;;;;;5094638;28;19930;-53
2023/09/09 06:31:54;;;;;;;;;;;;;;;;;;5104316;28;19912;-52
2023/09/09 06:34:20;;;;;;;;;;;;;;;;;;5103379;28;19931;-53
2023/09/09 06:36:45;;;;;;;;;;;;;;;;;;5095912;28;19912;-54
2023/09/09 06:39:10;;;;;;;;;;;;;;;;;;5095817;28;19975;-54
2023/09/09 06:41:35;;;;;;;;;;;;;;;;;;5095721;28;19932;-50
2023/09/09 06:44:01;;;;;;;;;;;;;;;;;;5095803;28;19920;-52
2023/09/09 06:46:26;;;;;;;;;;;;;;;;;;5095692;28;19916;-50
2023/09/09 06:48:52;;;;;;;;;;;;;;;;;;5095790;28;19955;-51
2023/09/09 06:51:17;;;;;;;;;;;;;;;;;;5098869;28;19912;-53
2023/09/09 06:53:42;;;;;;;;;;;;;;;;;;5095681;28;19944;-54
2023/09/09 06:56:08;;;;;;;;;;;;;;;;;;5095472;28;19912;-51
2023/09/09 06:58:34;;;;;;;;;;;;;;;;;;5094812;28;19918;-56
2023/09/09 07:01:02;;;;;;;;;;;;;;;;;;5095735;28;19924;-56
2023/09/09 07:03:27;;;;;;;;;;;;;;;;;;5095293;28;19954;-55
2023/09/09 07:05:53;;;;;;;;;;;;;;;;;;5095481;28;19912;-56
2023/09/09 07:08:18;;;;;;;;;;;;;;;;;;5095066;28;19940;-56
2023/09/09 07:10:44;;;;;;;;;;;;;;;;;;5095170;28;19940;-56
2023/09/09 07:13:09;;;;;;;;;;;;;;;;;;5095154;28;19934;-56
2023/09/09 07:15:35;;;;;;;;;;;;;;;;;;5097556;28;19936;-58
2023/09/09 07:18:01;;;;;;;;;;;;;;;;;;5085648;28;19979;-52
2023/09/09 07:20:26;;;;;;;;;;;;;;;;;;5065049;28;19913;-56
2023/09/09 07:22:51;;;;;;;;;;;;;;;;;;5081700;28;19943;-54
2023/09/09 07:25:17;;;;;;;;;;;;;;;;;;5081164;28;19955;-56
2023/09/09 07:27:42;;;;;;;;;;;;;;;;;;5081395;28;19924;-55
2023/09/09 07:30:09;;;;;;;;;;;;;;;;;;5074722;28;19916;-52
2023/09/09 07:32:35;;;;;;;;;;;;;;;;;;5078862;28;19909;-51
2023/09/09 07:35:00;;;;;;;;;;;;;;;;;;5074673;28;19920;-52
2023/09/09 07:37:26;;;;;;;;;;;;;;;;;;5074676;28;19913;-56
2023/09/09 07:39:51;;;;;;;;;;;;;;;;;;5074702;28;19921;-54
2023/09/09 07:42:17;;;;;;;;;;;;;;;;;;5075105;28;19913;-55
2023/09/09 07:44:42;;;;;;;;;;;;;;;;;;5074693;28;19912;-54
2023/09/09 07:47:08;;;;;;;;;;;;;;;;;;5075100;28;19912;-52
2023/09/09 07:49:34;;;;;;;;;;;;;;;;;;5090599;28;19924;-57
2023/09/09 07:51:59;;;;;;;;;;;;;;;;;;5085138;28;19916;-54
2023/09/09 07:54:25;;;;;;;;;;;;;;;;;;5075935;28;19912;-54
2023/09/09 07:56:50;;;;;;;;;;;;;;;;;;5074656;28;19977;-51
2023/09/09 07:59:16;;;;;;;;;;;;;;;;;;5057035;28;19924;-49
2023/09/09 08:01:42;;;;;;;;;;;;;;;;;;5081433;28;19922;-52
2023/09/09 08:04:07;;;;;;;;;;;;;;;;;;5076689;28;19912;-49
2023/09/09 08:06:32;;;;;;;;;;;;;;;;;;5089252;28;19919;-51
2023/09/09 08:08:57;;;;;;;;;;;;;;;;;;5076473;28;19917;-51
2023/09/09 08:11:23;;;;;;;;;;;;;;;;;;5077816;28;19913;-56
2023/09/09 08:13:48;;;;;;;;;;;;;;;;;;5076618;28;19917;-55
2023/09/09 08:16:13;;;;;;;;;;;;;;;;;;5077071;28;19978;-54
2023/09/09 08:18:39;;;;;;;;;;;;;;;;;;5076735;28;19917;-51
2023/09/09 08:21:04;;;;;;;;;;;;;;;;;;5074273;28;19927;-54
2023/09/09 08:23:30;;;;;;;;;;;;;;;;;;5064122;28;19924;-52
2023/09/09 08:25:55;;;;;;;;;;;;;;;;;;5067053;28;19913;-55
2023/09/09 08:28:21;;;;;;;;;;;;;;;;;;5073084;28;19917;-53
2023/09/09 08:30:46;;;;;;;;;;;;;;;;;;5078220;28;19920;-55
2023/09/09 08:33:12;;;;;;;;;;;;;;;;;;5089146;28;19927;-52
2023/09/09 08:35:37;;;;;;;;;;;;;;;;;;5050724;28;19924;-55
2023/09/09 08:38:04;;;;;;;;;;;;;;;;;;5068396;28;19913;-54
2023/09/09 08:40:30;;;;;;;;;;;;;;;;;;5061493;28;19913;-56
2023/09/09 08:42:58;;;;;;;;;;;;;;;;;;5083197;28;19913;-53
2023/09/09 08:45:24;;;;;;;;;;;;;;;;;;5075239;28;19985;-54
2023/09/09 08:47:49;;;;;;;;;;;;;;;;;;5080068;28;19913;-57
2023/09/09 08:50:15;;;;;;;;;;;;;;;;;;5068220;28;19917;-55
2023/09/09 08:52:40;;;;;;;;;;;;;;;;;;5072680;28;19968;-55
2023/09/09 08:55:05;;;;;;;;;;;;;;;;;;5064695;28;19923;-55
2023/09/09 08:57:31;;;;;;;;;;;;;;;;;;5072707;28;20890;-53
2023/09/09 08:59:56;;;;;;;;;;;;;;;;;;5069780;28;20269;-54
2023/09/09 09:02:21;;;;;;;;;;;;;;;;;;5065302;28;19980;-54
2023/09/09 09:04:46;;;;;;;;;;;;;;;;;;5068764;28;19912;-53
2023/09/09 09:07:12;;;;;;;;;;;;;;;;;;5048664;28;19955;-56
2023/09/09 09:09:37;;;;;;;;;;;;;;;;;;5068432;28;19916;-58
2023/09/09 09:12:06;;;;;;;;;;;;;;;;;;5063596;28;19917;-54
2023/09/09 09:14:31;;;;;;;;;;;;;;;;;;5068671;28;19913;-51
2023/09/09 09:16:57;;;;;;;;;;;;;;;;;;5065116;28;19920;-50
2023/09/09 09:19:22;;;;;;;;;;;;;;;;;;5068800;28;19913;-50
2023/09/09 09:21:49;;;;;;;;;;;;;;;;;;5077538;28;19928;-54
2023/09/09 09:24:15;;;;;;;;;;;;;;;;;;5085624;28;19959;-53
2023/09/09 09:26:40;;;;;;;;;;;;;;;;;;5074570;28;19913;-53
2023/09/09 09:29:06;;;;;;;;;;;;;;;;;;5068194;28;19921;-55
2023/09/09 09:31:31;;;;;;;;;;;;;;;;;;5061985;28;19939;-53
2023/09/09 09:33:56;;;;;;;;;;;;;;;;;;5071557;28;19924;-55
2023/09/09 09:36:21;;;;;;;;;;;;;;;;;;5069777;28;19985;-52
2023/09/09 09:38:47;;;;;;;;;;;;;;;;;;5082369;28;19935;-53
2023/09/09 09:41:13;;;;;;;;;;;;;;;;;;5067600;28;19913;-56
2023/09/09 09:43:38;;;;;;;;;;;;;;;;;;5074154;28;19920;-53
2023/09/09 09:46:04;;;;;;;;;;;;;;;;;;5068273;28;19980;-56
2023/09/09 09:48:29;;;;;;;;;;;;;;;;;;5081310;28;19933;-57
2023/09/09 09:50:54;;;;;;;;;;;;;;;;;;5069413;28;19926;-57
2023/09/09 09:53:19;;;;;;;;;;;;;;;;;;5074295;28;19920;-53
2023/09/09 09:55:45;;;;;;;;;;;;;;;;;;5057027;28;19913;-58
2023/09/09 09:58:10;;;;;;;;;;;;;;;;;;5056923;28;19980;-57
2023/09/09 10:00:36;;;;;;;;;;;;;;;;;;5073241;28;19913;-56
2023/09/09 10:03:02;;;;;;;;;;;;;;;;;;5083476;28;19921;-58
2023/09/09 10:05:27;;;;;;;;;;;;;;;;;;5079735;28;19939;-53
2023/09/09 10:07:52;;;;;;;;;;;;;;;;;;5079527;28;20003;-57
2023/09/09 10:10:17;;;;;;;;;;;;;;;;;;5066004;28;19917;-57
2023/09/09 10:12:43;;;;;;;;;;;;;;;;;;5075137;28;19921;-57
2023/09/09 10:15:09;;;;;;;;;;;;;;;;;;5063551;28;19920;-55
2023/09/09 10:17:34;;;;;;;;;;;;;;;;;;5075532;28;19920;-53
2023/09/09 10:19:59;;;;;;;;;;;;;;;;;;5065990;28;19932;-56
2023/09/09 10:22:24;;;;;;;;;;;;;;;;;;5074832;28;19917;-56
2023/09/09 10:24:49;;;;;;;;;;;;;;;;;;5067346;28;19920;-54
2023/09/09 10:27:14;;;;;;;;;;;;;;;;;;5075596;28;19993;-58
2023/09/09 10:29:40;;;;;;;;;;;;;;;;;;5074772;28;19924;-59
2023/09/09 10:32:05;;;;;;;;;;;;;;;;;;5069232;28;19913;-56
2023/09/09 10:34:30;;;;;;;;;;;;;;;;;;5077034;28;19932;-57
2023/09/09 10:36:56;;;;;;;;;;;;;;;;;;5075799;28;19935;-54
2023/09/09 10:39:22;;;;;;;;;;;;;;;;;;5076348;28;19988;-57
2023/09/09 10:41:49;;;;;;;;;;;;;;;;;;5075727;28;19913;-58
2023/09/09 10:44:15;;;;;;;;;;;;;;;;;;5072290;28;20007;-58
2023/09/09 10:46:40;;;;;;;;;;;;;;;;;;5075330;28;19913;-58
2023/09/09 10:49:06;;;;;;;;;;;;;;;;;;5075521;28;19917;-59
2023/09/09 10:51:31;;;;;;;;;;;;;;;;;;5071765;28;19917;-58
2023/09/09 10:53:56;;;;;;;;;;;;;;;;;;5080174;28;19913;-59
2023/09/09 10:56:22;;;;;;;;;;;;;;;;;;5075275;28;19916;-57
2023/09/09 10:58:47;;;;;;;;;;;;;;;;;;5070495;28;19914;-57
2023/09/09 11:01:13;;;;;;;;;;;;;;;;;;5066668;28;19988;-57
2023/09/09 11:03:38;;;;;;;;;;;;;;;;;;5080980;28;19912;-57
2023/09/09 11:06:04;;;;;;;;;;;;;;;;;;5067002;28;19920;-58
2023/09/09 11:08:30;;;;;;;;;;;;;;;;;;5076840;28;19939;-58
2023/09/09 11:10:55;;;;;;;;;;;;;;;;;;5066864;28;19913;-58
2023/09/09 11:13:20;;;;;;;;;;;;;;;;;;5071090;28;20003;-58
2023/09/09 11:15:45;;;;;;;;;;;;;;;;;;5072757;28;19913;-57
2023/09/09 11:18:11;;;;;;;;;;;;;;;;;;5065049;28;19932;-58
2023/09/09 11:20:36;;;;;;;;;;;;;;;;;;5074760;28;19972;-59
2023/09/09 11:23:04;;;;;;;;;;;;;;;;;;5074222;28;21228;-58
2023/09/09 11:25:29;;;;;;;;;;;;;;;;;;5071872;28;19920;-57
2023/09/09 11:27:54;;;;;;;;;;;;;;;;;;5072696;28;19984;-57
2023/09/09 11:30:19;;;;;;;;;;;;;;;;;;5065109;28;19923;-58
2023/09/09 11:32:45;;;;;;;;;;;;;;;;;;5069108;28;19913;-60
2023/09/09 11:35:11;;;;;;;;;;;;;;;;;;5066393;28;19932;-58
2023/09/09 11:37:36;;;;;;;;;;;;;;;;;;5071192;28;19940;-57
2023/09/09 11:40:02;;;;;;;;;;;;;;;;;;5052050;28;19913;-57
2023/09/09 11:42:28;;;;;;;;;;;;;;;;;;5064924;28;19920;-59
2023/09/09 11:44:53;;;;;;;;;;;;;;;;;;5070513;28;19976;-59
2023/09/09 11:47:18;;;;;;;;;;;;;;;;;;5080243;28;19912;-57
2023/09/09 11:49:44;;;;;;;;;;;;;;;;;;5059945;28;19917;-59
2023/09/09 11:52:09;;;;;;;;;;;;;;;;;;5065965;28;19985;-59
2023/09/09 11:54:35;;;;;;;;;;;;;;;;;;5062906;28;19917;-58
2023/09/09 11:57:00;;;;;;;;;;;;;;;;;;5068115;28;19913;-58
2023/09/09 11:59:25;;;;;;;;;;;;;;;;;;5074296;28;19913;-59
2023/09/09 12:01:51;;;;;;;;;;;;;;;;;;5056533;28;19928;-60
2023/09/09 12:04:17;;;;;;;;;;;;;;;;;;5076683;28;19976;-58
2023/09/09 12:06:42;;;;;;;;;;;;;;;;;;5078347;28;19913;-60
2023/09/09 12:09:07;;;;;;;;;;;;;;;;;;5081989;28;19925;-58
2023/09/09 12:11:32;;;;;;;;;;;;;;;;;;5069805;28;19952;-58
2023/09/09 12:14:00;;;;;;;;;;;;;;;;;;5070791;28;19917;-59
2023/09/09 12:16:25;;;;;;;;;;;;;;;;;;5077710;28;19936;-59
2023/09/09 12:18:50;;;;;;;;;;;;;;;;;;5076874;28;19916;-59
2023/09/09 12:21:16;;;;;;;;;;;;;;;;;;5076935;28;19925;-61
2023/09/09 12:23:41;;;;;;;;;;;;;;;;;;5074042;28;19924;-60
2023/09/09 12:26:07;;;;;;;;;;;;;;;;;;5084861;28;19913;-59
2023/09/09 12:28:32;;;;;;;;;;;;;;;;;;5082955;28;19927;-59
2023/09/09 12:30:58;;;;;;;;;;;;;;;;;;5077479;28;19909;-59
2023/09/09 12:33:23;;;;;;;;;;;;;;;;;;5088101;28;19945;-59
2023/09/09 12:35:49;;;;;;;;;;;;;;;;;;5076121;28;19913;-60
2023/09/09 12:38:14;;;;;;;;;;;;;;;;;;5078781;28;19913;-58
2023/09/09 12:40:40;;;;;;;;;;;;;;;;;;5080372;28;19939;-60
2023/09/09 12:43:05;;;;;;;;;;;;;;;;;;5072126;28;19913;-60
2023/09/09 12:45:31;;;;;;;;;;;;;;;;;;5071103;28;19916;-59
2023/09/09 12:47:57;;;;;;;;;;;;;;;;;;5082766;28;19913;-59
2023/09/09 12:50:23;;;;;;;;;;;;;;;;;;5085670;28;19979;-60
2023/09/09 12:52:48;;;;;;;;;;;;;;;;;;5077665;28;19912;-59
2023/09/09 12:55:14;;;;;;;;;;;;;;;;;;5088679;28;19984;-59
2023/09/09 12:57:40;;;;;;;;;;;;;;;;;;5078429;28;19912;-59
2023/09/09 13:00:05;;;;;;;;;;;;;;;;;;5089510;28;19988;-60
2023/09/09 13:02:31;;;;;;;;;;;;;;;;;;5078495;28;19913;-59
2023/09/09 13:04:56;;;;;;;;;;;;;;;;;;5077514;28;19913;-60
2023/09/09 13:07:22;;;;;;;;;;;;;;;;;;5076946;28;19955;-59
2023/09/09 13:09:47;;;;;;;;;;;;;;;;;;5085365;28;19935;-60
2023/09/09 13:12:13;;;;;;;;;;;;;;;;;;5078693;28;19913;-59
2023/09/09 13:14:38;;;;;;;;;;;;;;;;;;5082276;28;19913;-59
2023/09/09 13:17:04;;;;;;;;;;;;;;;;;;5077711;28;19917;-59
2023/09/09 13:19:29;;;;;;;;;;;;;;;;;;5081699;28;19923;-59
2023/09/09 13:21:55;;;;;;;;;;;;;;;;;;5061379;28;19980;-60
2023/09/09 13:24:20;;;;;;;;;;;;;;;;;;5077201;28;19943;-60
2023/09/09 13:26:46;;;;;;;;;;;;;;;;;;5076589;28;19933;-59
2023/09/09 13:29:11;;;;;;;;;;;;;;;;;;5076437;28;19921;-58
2023/09/09 13:31:37;;;;;;;;;;;;;;;;;;5076748;28;19963;-60
2023/09/09 13:34:02;;;;;;;;;;;;;;;;;;5076754;28;19928;-59
2023/09/09 13:36:29;;;;;;;;;;;;;;;;;;5077520;28;19917;-60
2023/09/09 13:38:54;;;;;;;;;;;;;;;;;;5076943;28;19984;-59
2023/09/09 13:41:20;;;;;;;;;;;;;;;;;;5076368;28;19913;-59
2023/09/09 13:43:45;;;;;;;;;;;;;;;;;;5076730;28;19919;-59
2023/09/09 13:46:11;;;;;;;;;;;;;;;;;;5076681;28;19919;-59
2023/09/09 13:48:36;;;;;;;;;;;;;;;;;;5077045;28;19953;-60
2023/09/09 13:51:03;;;;;;;;;;;;;;;;;;5076483;28;19932;-59
2023/09/09 13:53:28;;;;;;;;;;;;;;;;;;5076940;28;20798;-60
2023/09/09 13:55:53;;;;;;;;;;;;;;;;;;5082578;28;19913;-60
2023/09/09 13:58:21;;;;;;;;;;;;;;;;;;5076463;28;19984;-60
2023/09/09 14:00:46;;;;;;;;;;;;;;;;;;5083518;28;19940;-59
2023/09/09 14:03:11;;;;;;;;;;;;;;;;;;5091716;28;19935;-59
2023/09/09 14:05:37;;;;;;;;;;;;;;;;;;5079469;28;19917;-60
2023/09/09 14:08:03;;;;;;;;;;;;;;;;;;5076006;28;19935;-60
2023/09/09 14:10:29;;;;;;;;;;;;;;;;;;5075887;28;19923;-59
2023/09/09 14:12:54;;;;;;;;;;;;;;;;;;5076127;28;19913;-59
2023/09/09 14:15:20;;;;;;;;;;;;;;;;;;5076793;28;19913;-58
2023/09/09 14:17:45;;;;;;;;;;;;;;;;;;5075677;28;20031;-59
2023/09/09 14:20:11;;;;;;;;;;;;;;;;;;5082592;28;19944;-59
2023/09/09 14:22:36;;;;;;;;;;;;;;;;;;5075929;28;19913;-59
2023/09/09 14:25:02;;;;;;;;;;;;;;;;;;5077120;28;19917;-59
2023/09/09 14:27:28;;;;;;;;;;;;;;;;;;5084003;28;19913;-58
2023/09/09 14:29:53;;;;;;;;;;;;;;;;;;5075274;28;19916;-59
2023/09/09 14:32:18;;;;;;;;;;;;;;;;;;5075332;28;19937;-59
2023/09/09 14:34:44;;;;;;;;;;;;;;;;;;5075639;28;19912;-59
2023/09/09 14:37:09;;;;;;;;;;;;;;;;;;5082713;28;19948;-58
2023/09/09 14:39:35;;;;;;;;;;;;;;;;;;5075295;28;19917;-59
2023/09/09 14:42:00;;;;;;;;;;;;;;;;;;5074537;28;19913;-59
2023/09/09 14:44:26;;;;;;;;;;;;;;;;;;5074713;28;19912;-60
2023/09/09 14:46:51;;;;;;;;;;;;;;;;;;5075149;28;19920;-59
2023/09/09 14:49:17;;;;;;;;;;;;;;;;;;5074746;28;19917;-59
2023/09/09 14:51:43;;;;;;;;;;;;;;;;;;5081273;28;19967;-59
2023/09/09 14:54:09;;;;;;;;;;;;;;;;;;5075129;28;19921;-59
2023/09/09 14:56:34;;;;;;;;;;;;;;;;;;5078319;28;19920;-60
2023/09/09 14:59:00;;;;;;;;;;;;;;;;;;5074976;28;19947;-58
2023/09/09 15:01:25;;;;;;;;;;;;;;;;;;5078283;28;19913;-59
2023/09/09 15:03:51;;;;;;;;;;;;;;;;;;5074527;28;19939;-60
2023/09/09 15:06:16;;;;;;;;;;;;;;;;;;5075500;28;19923;-59
2023/09/09 15:08:41;;;;;;;;;;;;;;;;;;5074635;28;19959;-59
2023/09/09 15:11:07;;;;;;;;;;;;;;;;;;5074536;28;19913;-59
2023/09/09 15:13:32;;;;;;;;;;;;;;;;;;5074720;28;19917;-59
2023/09/09 15:15:58;;;;;;;;;;;;;;;;;;5064921;28;20725;-60
2023/09/09 15:18:24;;;;;;;;;;;;;;;;;;5078366;28;19924;-59
2023/09/09 15:20:50;;;;;;;;;;;;;;;;;;5084203;28;19936;-59
2023/09/09 15:23:15;;;;;;;;;;;;;;;;;;5078612;28;19962;-60
2023/09/09 15:25:41;;;;;;;;;;;;;;;;;;5074633;28;19917;-59
2023/09/09 15:28:07;;;;;;;;;;;;;;;;;;5074311;28;19999;-59
2023/09/09 15:30:32;;;;;;;;;;;;;;;;;;5074258;28;19921;-59
2023/09/09 15:32:58;;;;;;;;;;;;;;;;;;5074064;28;19913;-59
2023/09/09 15:35:28;;;;;;;;;;;;;;;;;;5075808;28;19913;-60
2023/09/09 15:37:54;;;;;;;;;;;;;;;;;;5059548;28;19913;-61
2023/09/09 15:40:19;;;;;;;;;;;;;;;;;;5073719;28;19936;-59
2023/09/09 15:42:45;;;;;;;;;;;;;;;;;;5074130;28;19992;-59
2023/09/09 15:45:10;;;;;;;;;;;;;;;;;;5074573;28;19913;-59
2023/09/09 15:47:36;;;;;;;;;;;;;;;;;;5076223;28;19917;-58
2023/09/09 15:50:02;;;;;;;;;;;;;;;;;;5073853;28;19917;-59
2023/09/09 15:52:27;;;;;;;;;;;;;;;;;;5076291;28;19913;-58
2023/09/09 15:54:52;;;;;;;;;;;;;;;;;;5074516;28;19921;-58
2023/09/09 15:57:18;;;;;;;;;;;;;;;;;;5086931;28;19919;-59
2023/09/09 15:59:43;;;;;;;;;;;;;;;;;;5074509;28;19948;-58
2023/09/09 16:02:09;;;;;;;;;;;;;;;;;;5075228;28;19913;-59
2023/09/09 16:04:34;;;;;;;;;;;;;;;;;;5074350;28;19919;-58
2023/09/09 16:07:00;;;;;;;;;;;;;;;;;;5084211;28;19917;-60
2023/09/09 16:09:25;;;;;;;;;;;;;;;;;;5073936;28;19917;-59
2023/09/09 16:11:51;;;;;;;;;;;;;;;;;;5085860;28;19919;-57
2023/09/09 16:14:16;;;;;;;;;;;;;;;;;;5074302;28;19912;-57
2023/09/09 16:16:42;;;;;;;;;;;;;;;;;;5081156;28;19918;-59
2023/09/09 16:19:07;;;;;;;;;;;;;;;;;;5074211;28;19920;-58
2023/09/09 16:21:38;;;;;;;;;;;;;;;;;;5097702;28;19916;-57
2023/09/09 16:24:04;;;;;;;;;;;;;;;;;;5074067;28;19917;-56
2023/09/09 16:26:30;;;;;;;;;;;;;;;;;;5076916;28;19984;-58
2023/09/09 16:28:55;;;;;;;;;;;;;;;;;;5074200;28;19917;-57
2023/09/09 16:31:21;;;;;;;;;;;;;;;;;;5078081;28;19929;-58
2023/09/09 16:33:47;;;;;;;;;;;;;;;;;;5073548;28;19913;-58